Los Lunas ASC

Dec. 14, 2019, 5:25 p.m.

  • imperial
Air Temperature RH Dewpoint Wind Chill Heat Index Wind Speed Wind Direction Precipitation Solar Radiation Soil Temperature
Date Time Max Mean Mean Total Total
US/Mountain F % F F F MPH MPH MPH deg. deg. in. MJ/m^2 F
2019-12-13 17:25 49.21 45.75 29.17 47.1 49.21 5.28 5.28 4.56 6.5 40.8 0.0 0.0 45.61
2019-12-13 17:30 48.83 45.17 28.51 47.1 48.83 4.56 5.64 5.1 5.5 37.4 0.0 0.0 45.52
2019-12-13 17:35 50.25 42.32 28.21 50.25 50.25 5.46 6.35 5.23 7.5 30.9 0.0 0.0 45.46
2019-12-13 17:40 50.25 42.83 28.5 50.25 50.25 6.17 7.43 5.66 10.9 29.0 0.0 0.0 45.41
2019-12-13 17:45 48.85 44.5 28.16 46.18 48.85 6.17 6.71 6.0 9.9 34.2 0.0 0.0 45.34
2019-12-13 17:50 48.79 46.3 29.08 47.71 48.79 3.67 6.71 5.1 14.8 37.9 0.0 0.0 45.25
2019-12-13 17:55 48.38 47.94 29.55 47.09 48.38 3.85 6.0 4.5 8.4 40.0 0.0 0.0 45.21
2019-12-13 18:00 46.36 50.7 29.07 45.24 46.36 3.31 4.03 3.58 4.2 51.5 0.0 0.0 45.12
2019-12-13 18:05 46.8 50.63 29.43 46.8 46.8 0.98 3.67 3.09 11.9 61.8 0.0 0.0 45.05
2019-12-13 18:10 46.0 51.01 28.88 46.0 46.0 0.0 0.81 0.02 0.0 132.9 0.0 0.0 45.0
2019-12-13 18:15 45.14 54.0 29.48 45.14 45.14 0.0 0.0 0.0 0.0 0.0 0.0 0.0 44.92
2019-12-13 18:20 44.96 54.48 29.53 44.96 44.96 0.0 0.0 0.0 0.0 0.0 0.0 0.0 44.83
2019-12-13 18:25 44.35 54.58 29.0 44.35 44.35 0.0 0.0 0.0 0.0 0.0 0.0 0.0 44.76
2019-12-13 18:30 44.35 54.75 29.08 44.35 44.35 0.0 0.81 0.02 0.0 42.8 0.0 0.0 44.69
2019-12-13 18:35 44.37 55.4 29.38 44.37 44.37 0.0 1.16 0.22 5.5 5.2 0.0 0.0 44.6
2019-12-13 18:40 44.37 55.85 29.58 44.37 44.37 0.0 0.0 0.0 0.0 0.0 0.0 0.0 44.55
2019-12-13 18:45 43.65 54.97 28.52 43.65 43.65 0.0 2.24 1.43 23.4 54.7 0.0 0.0 44.47
2019-12-13 18:50 43.47 56.16 28.87 43.47 43.47 1.52 1.52 0.47 20.3 203.5 0.0 0.0 44.4
2019-12-13 18:55 43.03 57.49 29.04 43.03 43.03 0.98 1.7 1.41 11.2 225.1 0.0 0.0 44.33
2019-12-13 19:00 43.03 55.21 28.05 43.03 43.03 1.88 2.06 0.94 13.5 299.5 0.0 0.0 44.24
2019-12-13 19:05 43.36 55.7 28.57 43.36 43.36 0.81 2.24 1.5 19.6 289.7 0.0 0.0 44.17
2019-12-13 19:10 42.21 58.83 28.83 42.21 42.21 1.7 2.24 1.81 3.5 230.4 0.0 0.0 44.11
2019-12-13 19:15 41.47 59.18 28.28 41.47 41.47 0.0 1.52 0.43 6.8 249.6 0.0 0.0 44.04
2019-12-13 19:20 41.16 60.0 28.33 41.16 41.16 1.7 1.7 0.47 6.8 248.8 0.0 0.0 43.97
2019-12-13 19:25 40.86 61.05 28.46 40.86 40.86 2.77 2.77 1.48 83.5 217.5 0.0 0.0 43.9
2019-12-13 19:30 41.16 61.19 28.81 41.16 41.16 1.88 2.95 1.52 17.2 228.6 0.0 0.0 43.83
2019-12-13 19:35 41.95 58.98 28.65 41.95 41.95 1.52 3.13 2.21 22.5 307.1 0.0 0.0 43.74
2019-12-13 19:40 42.08 58.43 28.54 42.08 42.08 1.88 2.95 1.88 33.2 272.4 0.0 0.0 43.68
2019-12-13 19:45 41.04 60.88 28.56 41.04 41.04 0.0 2.06 1.32 10.2 249.9 0.0 0.0 43.61
2019-12-13 19:50 41.04 60.44 28.39 41.04 41.04 2.42 2.95 2.17 9.9 294.5 0.0 0.0 43.56
2019-12-13 19:55 41.11 60.71 28.56 41.11 41.11 0.0 2.77 1.39 13.9 264.3 0.0 0.0 43.48
2019-12-13 20:00 40.19 63.47 28.78 40.19 40.19 0.0 2.59 1.3 13.8 247.0 0.0 0.0 43.43
2019-12-13 20:05 39.45 64.35 28.41 39.45 39.45 0.0 1.52 0.25 2.8 211.6 0.0 0.0 43.36
2019-12-13 20:10 39.2 66.87 29.11 39.2 39.2 0.0 0.0 0.0 0.0 0.0 0.0 0.0 43.29
2019-12-13 20:15 38.71 69.56 29.62 38.71 38.71 0.0 0.0 0.0 0.0 0.0 0.0 0.0 43.25
2019-12-13 20:20 38.35 68.74 28.98 38.35 38.35 0.0 0.81 0.02 0.0 63.4 0.0 0.0 43.18
2019-12-13 20:25 38.16 69.53 29.07 38.16 38.16 0.0 0.81 0.02 0.0 50.7 0.0 0.0 43.09
2019-12-13 20:30 38.17 67.35 28.31 38.17 38.17 0.98 2.06 0.74 11.1 299.3 0.0 0.0 43.05
2019-12-13 20:35 38.35 68.51 28.9 38.35 38.35 0.81 0.98 0.27 17.3 253.2 0.0 0.0 43.0
2019-12-13 20:40 38.17 67.26 28.28 38.17 38.17 2.42 2.59 1.99 4.2 237.7 0.0 0.0 42.93
2019-12-13 20:45 38.12 68.69 28.74 38.12 38.12 0.0 2.42 1.01 4.5 232.1 0.0 0.0 42.85
2019-12-13 20:50 37.74 67.94 28.11 37.74 37.74 1.34 1.88 0.45 17.0 290.2 0.0 0.0 42.78
2019-12-13 20:55 37.76 68.97 28.49 37.76 37.76 1.7 2.42 1.77 7.1 222.4 0.0 0.0 42.71
2019-12-13 21:00 36.9 71.76 28.63 36.9 36.9 1.88 2.06 1.5 12.1 186.6 0.0 0.0 42.66
2019-12-13 21:05 36.46 73.12 28.67 36.46 36.46 0.0 1.88 0.65 2.1 178.5 0.0 0.0 42.62
2019-12-13 21:10 36.36 73.97 28.85 36.36 36.36 0.0 0.0 0.0 0.0 0.0 0.0 0.0 42.55
2019-12-13 21:15 36.1 74.72 28.86 36.1 36.1 0.0 0.0 0.0 0.0 0.0 0.0 0.0 42.48
2019-12-13 21:20 35.67 77.0 29.17 35.67 35.67 0.0 0.0 0.0 0.0 0.0 0.0 0.0 42.4
2019-12-13 21:25 35.62 75.91 28.77 35.62 35.62 0.0 0.0 0.0 0.0 0.0 0.0 0.0 42.35
2019-12-13 21:30 35.44 76.8 28.88 35.44 35.44 0.0 0.0 0.0 0.0 0.0 0.0 0.0 42.28
2019-12-13 21:35 35.24 76.6 28.63 35.24 35.24 0.0 0.0 0.0 0.0 0.0 0.0 0.0 42.22
2019-12-13 21:40 35.24 76.53 28.6 35.24 35.24 0.0 0.0 0.0 0.0 0.0 0.0 0.0 42.17
2019-12-13 21:45 35.19 76.09 28.41 35.19 35.19 0.0 0.98 0.31 6.0 298.9 0.0 0.0 42.12
2019-12-13 21:50 34.39 78.52 28.41 34.39 34.39 1.34 1.7 0.67 5.7 39.9 0.0 0.0 42.04
2019-12-13 21:55 33.73 78.35 27.71 33.73 33.73 0.0 1.52 0.31 0.8 34.7 0.0 0.0 41.97
2019-12-13 22:00 33.49 79.79 27.92 33.49 33.49 0.0 0.0 0.0 0.0 0.0 0.0 0.0 41.92
2019-12-13 22:05 33.37 81.8 28.41 33.37 33.37 1.52 1.88 0.49 3.4 9.2 0.0 0.0 41.85
2019-12-13 22:10 33.19 81.7 28.2 33.19 33.19 0.0 1.7 0.58 4.9 22.2 0.0 0.0 41.77
2019-12-13 22:15 33.06 81.7 28.08 33.06 33.06 1.34 2.95 1.01 2.3 197.2 0.0 0.0 41.72
2019-12-13 22:20 32.94 82.0 28.04 32.94 32.94 0.0 1.34 0.2 30.8 231.5 0.0 0.0 41.67
2019-12-13 22:25 33.24 80.8 27.98 33.24 33.24 0.0 0.0 0.0 0.0 0.0 0.0 0.0 41.59
2019-12-13 22:30 33.31 79.38 27.62 33.31 33.31 0.0 0.0 0.0 0.0 0.0 0.0 0.0 41.52
2019-12-13 22:35 32.94 80.4 27.56 32.94 32.94 0.0 0.81 0.02 0.0 289.0 0.0 0.0 41.47
2019-12-13 22:40 32.88 79.86 27.35 32.88 32.88 0.0 0.0 0.0 0.0 0.0 0.0 0.0 41.4
2019-12-13 22:45 32.52 81.4 27.46 32.52 32.52 2.24 3.13 2.19 8.6 199.2 0.0 0.0 41.36
2019-12-13 22:50 32.76 83.0 28.16 32.76 32.76 1.88 3.85 2.89 12.4 201.7 0.0 0.0 41.29
2019-12-13 22:55 32.58 82.1 27.72 32.58 32.58 0.0 1.88 1.05 13.7 210.7 0.0 0.0 41.23
2019-12-13 23:00 32.45 83.3 27.95 32.45 32.45 1.16 1.7 0.92 16.4 235.7 0.0 0.0 41.16
2019-12-13 23:05 32.95 81.8 28.0 32.95 32.95 0.0 2.06 1.05 8.3 257.3 0.0 0.0 41.09
2019-12-13 23:10 32.63 81.9 27.72 32.63 32.63 0.0 1.34 0.31 1.0 238.4 0.0 0.0 41.04
2019-12-13 23:15 31.96 83.5 27.53 31.96 31.96 0.0 2.24 0.83 8.2 24.4 0.0 0.0 40.98
2019-12-13 23:20 31.41 85.1 27.45 31.41 31.41 2.95 3.49 1.3 3.9 35.9 0.0 0.0 40.91
2019-12-13 23:25 30.92 85.6 27.11 30.92 30.92 0.0 3.13 1.01 38.1 90.1 0.0 0.0 40.86
2019-12-13 23:30 30.99 86.3 27.38 30.99 30.99 0.81 2.77 1.5 14.9 356.4 0.0 0.0 40.78
2019-12-13 23:35 31.17 86.2 27.53 31.17 31.17 0.0 0.98 0.07 2.6 41.5 0.0 0.0 40.73
2019-12-13 23:40 31.24 86.2 27.6 31.24 31.24 1.7 1.7 0.16 35.7 315.5 0.0 0.0 40.66
2019-12-13 23:45 31.12 85.8 27.36 31.12 31.12 2.59 2.59 1.03 62.2 126.8 0.0 0.0 40.6
2019-12-13 23:50 31.42 85.8 27.67 31.42 31.42 2.06 3.31 2.26 77.6 248.6 0.0 0.0 40.55
2019-12-13 23:55 31.8 85.8 28.04 27.79 31.8 4.03 8.12 2.42 74.2 329.5 0.0 0.0 40.48
2019-12-14 00:00 32.11 84.7 28.02 32.11 32.11 0.98 3.49 1.77 38.1 164.5 0.0 0.0 40.44
2019-12-14 00:05 32.04 85.1 28.07 32.04 32.04 2.95 2.95 0.18 19.3 275.7 0.0 0.0 40.37
2019-12-14 00:10 31.93 83.5 27.5 31.93 31.93 2.06 9.4 3.36 92.3 182.6 0.0 0.0 40.32
2019-12-14 00:15 32.67 82.9 28.05 29.19 32.67 3.67 6.53 2.68 62.9 294.7 0.0 0.0 40.24
2019-12-14 00:20 34.0 79.13 28.21 34.0 34.0 0.98 4.21 2.42 30.6 155.2 0.0 0.0 40.19
2019-12-14 00:25 35.65 74.5 28.35 35.65 35.65 1.88 6.53 3.09 58.9 299.5 0.0 0.0 40.12
2019-12-14 00:30 36.27 73.07 28.47 36.27 36.27 2.59 3.85 2.73 26.7 169.7 0.0 0.0 40.08
2019-12-14 00:35 36.34 72.24 28.26 36.34 36.34 1.16 4.21 2.39 66.9 264.4 0.0 0.0 40.03
2019-12-14 00:40 36.01 73.91 28.5 36.01 36.01 1.7 2.24 1.39 69.8 202.4 0.0 0.0 39.97
2019-12-14 00:45 35.4 74.89 28.23 35.4 35.4 0.0 1.88 0.83 28.2 275.8 0.0 0.0 39.92
2019-12-14 00:50 34.48 76.59 27.89 34.48 34.48 1.16 2.42 1.45 6.9 219.3 0.0 0.0 39.88
2019-12-14 00:55 33.93 78.7 28.01 33.93 33.93 0.0 1.16 0.13 1.5 229.2 0.0 0.0 39.81
2019-12-14 01:00 33.49 80.3 28.08 33.49 33.49 0.0 0.0 0.0 0.0 0.0 0.0 0.0 39.78
2019-12-14 01:05 33.19 81.3 28.08 33.19 33.19 0.98 1.7 0.27 11.2 322.4 0.0 0.0 39.72
2019-12-14 01:10 32.58 81.6 27.57 32.58 32.58 2.24 2.42 1.03 27.9 38.7 0.0 0.0 39.67
2019-12-14 01:15 32.27 82.8 27.63 32.27 32.27 0.0 2.59 1.41 42.6 38.1 0.0 0.0 39.63
2019-12-14 01:20 31.91 83.7 27.54 31.91 31.91 0.0 2.24 1.3 14.3 216.0 0.0 0.0 39.56
2019-12-14 01:25 31.59 85.3 27.68 31.59 31.59 0.0 1.88 0.83 6.1 57.4 0.0 0.0 39.52
2019-12-14 01:30 31.05 85.8 27.29 31.05 31.05 0.0 0.0 0.0 0.0 0.0 0.0 0.0 39.49
2019-12-14 01:35 30.56 87.0 27.15 30.56 30.56 0.81 2.06 1.41 23.9 214.2 0.0 0.0 39.43
2019-12-14 01:40 30.69 87.3 27.36 30.69 30.69 0.0 0.0 0.0 0.0 0.0 0.0 0.0 39.4
2019-12-14 01:45 30.61 88.1 27.51 30.61 30.61 0.0 0.81 0.11 5.2 32.1 0.0 0.0 39.34
2019-12-14 01:50 30.56 86.4 26.98 30.56 30.56 1.52 2.42 1.36 65.8 260.9 0.0 0.0 39.29
2019-12-14 01:55 30.56 86.5 27.01 30.56 30.56 2.24 2.77 1.28 50.5 293.7 0.0 0.0 39.24
2019-12-14 02:00 30.69 86.2 27.05 30.69 30.69 0.98 2.95 1.79 26.7 181.3 0.0 0.0 39.2
2019-12-14 02:05 30.58 86.6 27.06 30.58 30.58 2.24 3.31 1.77 14.3 294.2 0.0 0.0 39.15
2019-12-14 02:10 30.33 86.8 26.87 30.33 30.33 0.0 2.59 1.3 28.9 187.6 0.0 0.0 39.11
2019-12-14 02:15 30.33 87.1 26.95 30.33 30.33 0.0 1.34 0.13 3.3 261.9 0.0 0.0 39.06
2019-12-14 02:20 30.02 87.0 26.62 30.02 30.02 0.81 1.16 0.22 1.4 218.4 0.0 0.0 39.02
2019-12-14 02:25 29.48 88.3 26.45 29.48 29.48 1.52 2.77 1.68 19.5 205.1 0.0 0.0 38.98
2019-12-14 02:30 29.66 88.2 26.6 29.66 29.66 0.98 1.7 0.65 16.4 265.8 0.0 0.0 38.93
2019-12-14 02:35 29.28 88.0 26.17 29.28 29.28 2.24 2.24 1.34 27.4 292.2 0.0 0.0 38.88
2019-12-14 02:40 29.28 88.5 26.31 29.28 29.28 0.81 2.77 1.28 42.2 284.3 0.0 0.0 38.84
2019-12-14 02:45 29.1 88.8 26.21 29.1 29.1 1.88 1.88 0.4 5.7 167.4 0.0 0.0 38.79
2019-12-14 02:50 28.87 89.6 26.2 28.87 28.87 0.0 2.06 0.51 17.4 202.0 0.0 0.0 38.73
2019-12-14 02:55 28.87 89.4 26.14 28.87 28.87 0.0 0.0 0.0 0.0 0.0 0.0 0.0 38.7
2019-12-14 03:00 28.87 90.0 26.31 28.87 28.87 0.0 0.0 0.0 0.0 0.0 0.0 0.0 38.64
2019-12-14 03:05 28.62 91.1 26.35 28.62 28.62 0.98 0.98 0.09 0.8 248.8 0.0 0.0 38.61
2019-12-14 03:10 28.87 90.6 26.47 28.87 28.87 0.0 2.06 0.92 28.7 297.7 0.0 0.0 38.55
2019-12-14 03:15 28.74 90.2 26.23 28.74 28.74 0.0 0.0 0.0 0.0 0.0 0.0 0.0 38.52
2019-12-14 03:20 28.8 90.0 26.23 28.8 28.8 0.0 0.0 0.0 0.0 0.0 0.0 0.0 38.46
2019-12-14 03:25 28.8 90.1 26.26 28.8 28.8 1.88 2.24 0.69 7.0 225.3 0.0 0.0 38.43
2019-12-14 03:30 28.8 90.0 26.23 28.8 28.8 0.0 1.52 0.18 1.8 222.2 0.0 0.0 38.41
2019-12-14 03:35 28.62 90.1 26.08 28.62 28.62 0.81 2.06 0.58 19.3 203.3 0.0 0.0 38.37
2019-12-14 03:40 28.62 89.6 25.95 28.62 28.62 0.81 1.34 0.34 52.0 359.5 0.0 0.0 38.34
2019-12-14 03:45 28.0 90.7 25.64 28.0 28.0 0.0 3.49 1.41 13.9 29.3 0.0 0.0 38.3
2019-12-14 03:50 28.0 91.9 25.96 28.0 28.0 1.88 1.88 0.4 9.9 49.6 0.0 0.0 38.26
2019-12-14 03:55 28.18 92.5 26.29 28.18 28.18 2.06 2.24 1.43 35.6 25.6 0.0 0.0 38.23
2019-12-14 04:00 28.54 92.5 26.65 28.54 28.54 2.06 2.24 1.28 9.8 31.8 0.0 0.0 38.19
2019-12-14 04:05 28.8 91.6 26.66 28.8 28.8 2.24 3.31 2.1 25.2 5.4 0.0 0.0 38.16
2019-12-14 04:10 28.67 92.0 26.64 28.67 28.67 2.42 2.59 1.72 27.7 15.4 0.0 0.0 38.12
2019-12-14 04:15 28.87 92.6 27.0 28.87 28.87 0.98 2.77 1.88 28.8 34.1 0.0 0.0 38.1
2019-12-14 04:20 29.1 92.5 27.2 29.1 29.1 0.0 1.88 1.28 53.5 15.5 0.0 0.0 38.07
2019-12-14 04:25 29.28 92.0 27.25 29.28 29.28 0.81 1.88 0.45 28.4 358.6 0.0 0.0 38.05
2019-12-14 04:30 29.28 90.9 26.96 29.28 29.28 1.34 1.34 0.36 55.4 273.7 0.0 0.0 38.01
2019-12-14 04:35 29.28 90.0 26.71 29.28 29.28 1.34 1.7 1.03 64.3 36.6 0.0 0.0 37.98
2019-12-14 04:40 28.54 89.3 25.8 28.54 28.54 0.0 0.98 0.07 0.1 81.7 0.0 0.0 37.96
2019-12-14 04:45 28.18 91.3 25.98 28.18 28.18 0.0 2.95 0.85 20.9 29.2 0.0 0.0 37.92
2019-12-14 04:50 28.62 91.8 26.54 28.62 28.62 1.88 2.59 0.58 17.2 232.9 0.0 0.0 37.92
2019-12-14 04:55 28.49 91.6 26.36 28.49 28.49 0.0 1.88 0.27 19.0 223.4 0.0 0.0 37.89
2019-12-14 05:00 28.06 91.1 25.8 28.06 28.06 0.98 2.06 0.56 8.2 352.4 0.0 0.0 37.85
2019-12-14 05:05 28.44 92.1 26.44 28.44 28.44 0.0 2.06 0.98 11.5 21.4 0.0 0.0 37.83
2019-12-14 05:10 28.26 92.0 26.23 28.26 28.26 0.0 0.81 0.04 0.8 65.1 0.0 0.0 37.8
2019-12-14 05:15 28.44 92.3 26.49 28.44 28.44 0.0 0.81 0.02 0.0 275.0 0.0 0.0 37.78
2019-12-14 05:20 28.67 91.4 26.48 28.67 28.67 0.0 1.7 0.45 9.2 341.6 0.0 0.0 37.74
2019-12-14 05:25 28.49 91.1 26.23 28.49 28.49 2.06 2.59 1.28 14.9 230.7 0.0 0.0 37.71
2019-12-14 05:30 28.31 90.6 25.91 28.31 28.31 0.0 2.24 1.05 27.7 270.2 0.0 0.0 37.69
2019-12-14 05:35 28.18 90.9 25.87 28.18 28.18 0.98 0.98 0.16 13.3 61.9 0.0 0.0 37.65
2019-12-14 05:40 27.95 91.0 25.66 27.95 27.95 0.0 0.81 0.09 13.4 21.6 0.0 0.0 37.63
2019-12-14 05:45 28.0 91.6 25.88 28.0 28.0 0.0 1.34 0.22 6.9 12.8 0.0 0.0 37.6
2019-12-14 05:50 27.82 92.0 25.8 27.82 27.82 2.24 2.24 0.6 2.5 191.3 0.0 0.0 37.56
2019-12-14 05:55 27.59 91.7 25.49 27.59 27.59 0.0 2.77 1.05 5.2 217.8 0.0 0.0 37.54
2019-12-14 06:00 27.52 92.5 25.63 27.52 27.52 0.0 1.52 0.36 5.2 348.2 0.0 0.0 37.54
2019-12-14 06:05 27.59 92.3 25.65 27.59 27.59 0.0 2.59 0.51 17.9 262.8 0.0 0.0 37.51
2019-12-14 06:10 27.64 91.7 25.55 27.64 27.64 0.0 1.88 0.76 20.5 267.0 0.0 0.0 37.49
2019-12-14 06:15 27.46 91.3 25.26 27.46 27.46 0.0 0.0 0.0 0.0 0.0 0.0 0.0 37.45
2019-12-14 06:20 27.59 91.6 25.47 27.59 27.59 1.88 1.88 0.2 3.1 226.9 0.0 0.0 37.44
2019-12-14 06:25 27.46 91.7 25.37 27.46 27.46 0.0 2.06 0.81 7.4 214.6 0.0 0.0 37.4
2019-12-14 06:30 27.28 92.0 25.27 27.28 27.28 0.0 1.52 0.69 37.8 243.7 0.0 0.0 37.38
2019-12-14 06:35 27.28 92.1 25.29 27.28 27.28 0.0 1.34 0.36 31.6 215.0 0.0 0.0 37.36
2019-12-14 06:40 27.28 92.3 25.35 27.28 27.28 0.0 0.81 0.09 1.0 245.9 0.0 0.0 37.33
2019-12-14 06:45 27.28 92.5 25.4 27.28 27.28 0.0 2.06 0.43 9.8 341.0 0.0 0.0 37.29
2019-12-14 06:50 27.41 92.3 25.47 27.41 27.41 1.16 1.16 0.11 5.8 195.5 0.0 0.0 37.29
2019-12-14 06:55 27.36 92.8 25.55 27.36 27.36 1.7 2.42 1.25 62.9 220.5 0.0 0.0 37.27
2019-12-14 07:00 27.36 92.6 25.5 27.36 27.36 0.0 1.88 0.92 20.2 359.7 0.0 0.001 37.24
2019-12-14 07:05 27.59 92.2 25.62 27.59 27.59 1.88 1.88 0.31 1.4 210.4 0.0 0.001 37.22
2019-12-14 07:10 27.28 92.5 25.4 27.28 27.28 0.81 2.42 1.59 9.6 223.8 0.0 0.001 37.2
2019-12-14 07:15 27.46 93.6 25.86 27.46 27.46 0.0 1.7 0.54 29.4 276.2 0.0 0.002 37.17
2019-12-14 07:20 27.77 93.1 26.04 27.77 27.77 0.98 1.7 0.81 24.9 256.3 0.0 0.002 37.15
2019-12-14 07:25 27.97 93.0 26.21 27.97 27.97 0.0 3.49 2.06 23.1 217.3 0.0 0.003 37.13
2019-12-14 07:30 28.76 92.3 26.81 24.71 28.76 3.67 4.21 2.62 20.5 231.1 0.0 0.004 37.09
2019-12-14 07:35 29.01 90.1 26.47 29.01 29.01 1.88 3.49 2.51 13.4 220.8 0.0 0.005 37.08
2019-12-14 07:40 29.25 91.1 26.97 29.25 29.25 0.81 3.31 2.21 24.8 222.4 0.0 0.006 37.06
2019-12-14 07:45 30.04 90.6 27.62 25.36 30.04 4.38 4.38 1.3 52.9 351.8 0.0 0.008 37.04
2019-12-14 07:50 30.29 91.3 28.06 30.29 30.29 0.98 5.82 3.49 17.5 34.6 0.0 0.009 37.02
2019-12-14 07:55 30.65 89.7 27.98 30.65 30.65 1.7 1.88 0.49 14.6 273.1 0.0 0.011 37.0
2019-12-14 08:00 31.57 86.8 28.09 31.57 31.57 1.34 2.24 0.81 31.7 222.8 0.0 0.013 36.99
2019-12-14 08:05 32.11 84.7 28.02 32.11 32.11 1.34 2.24 0.87 10.9 232.5 0.0 0.013 36.97
2019-12-14 08:10 32.79 82.2 27.96 32.79 32.79 0.0 1.7 0.45 5.3 237.6 0.0 0.029 36.95
2019-12-14 08:15 33.33 80.8 28.07 33.33 33.33 0.0 0.0 0.0 0.0 0.0 0.0 0.048 36.91
2019-12-14 08:20 34.14 79.2 28.37 34.14 34.14 0.0 0.81 0.04 15.2 101.1 0.0 0.052 36.9
2019-12-14 08:25 34.81 80.1 29.3 34.81 34.81 2.59 3.13 1.21 11.2 31.4 0.0 0.056 36.88
2019-12-14 08:30 35.29 79.95 29.73 32.01 35.29 3.85 3.85 2.51 9.8 43.9 0.0 0.06 36.86
2019-12-14 08:35 35.73 74.77 28.51 35.73 35.73 0.0 3.49 1.52 9.6 44.5 0.0 0.063 36.84
2019-12-14 08:40 36.45 72.79 28.55 36.45 36.45 0.0 0.0 0.0 0.0 0.0 0.0 0.065 36.84
2019-12-14 08:45 37.8 71.18 29.3 37.8 37.8 0.0 0.0 0.0 0.0 0.0 0.0 0.067 36.82
2019-12-14 08:50 38.82 69.81 29.81 38.82 38.82 0.0 1.88 0.27 2.7 29.7 0.0 0.07 36.81
2019-12-14 08:55 39.94 69.17 30.65 39.94 39.94 0.0 0.81 0.04 4.0 25.2 0.0 0.074 36.79
2019-12-14 09:00 40.98 66.51 30.68 40.98 40.98 0.0 0.0 0.0 0.0 0.0 0.0 0.077 36.79
2019-12-14 09:05 41.88 66.63 31.59 41.88 41.88 2.59 2.59 0.18 1.9 53.1 0.0 0.081 36.77
2019-12-14 09:10 41.88 69.66 32.69 39.95 41.88 3.49 3.67 2.42 10.7 44.8 0.0 0.084 36.75
2019-12-14 09:15 42.78 67.23 32.67 42.78 42.78 0.0 4.74 1.72 17.0 57.4 0.0 0.088 36.75
2019-12-14 09:20 45.52 64.84 34.37 45.52 45.52 0.0 1.16 0.07 6.8 102.4 0.0 0.092 36.73
2019-12-14 09:25 47.3 59.15 33.76 47.3 47.3 0.0 0.81 0.02 0.0 76.9 0.0 0.096 36.73
2019-12-14 09:30 47.41 61.36 34.78 47.41 47.41 0.0 2.59 0.74 6.2 42.1 0.0 0.099 36.72
2019-12-14 09:35 50.04 55.63 34.78 50.04 50.04 0.0 1.34 0.09 4.3 140.6 0.0 0.103 36.72
2019-12-14 09:40 52.41 53.55 36.04 52.41 52.41 2.77 6.89 0.92 18.9 188.9 0.0 0.107 36.72
2019-12-14 09:45 53.87 50.51 35.91 53.87 53.87 1.52 6.35 2.84 16.9 189.1 0.0 0.11 36.73
2019-12-14 09:50 54.82 46.8 34.86 54.82 54.82 3.31 5.46 2.64 29.0 188.5 0.0 0.114 36.79
2019-12-14 09:55 55.44 47.2 35.64 55.44 55.44 1.34 7.61 4.09 26.1 200.4 0.0 0.115 36.88
2019-12-14 10:00 54.55 45.9 34.13 54.55 54.55 2.06 6.53 4.03 29.0 217.9 0.0 0.033 36.97
2019-12-14 10:05 53.82 47.02 34.06 53.82 53.82 3.13 7.61 3.2 20.0 212.4 0.0 0.045 37.09
2019-12-14 10:10 54.36 46.3 34.17 54.36 54.36 2.24 3.31 1.59 36.0 251.3 0.0 0.071 37.22
2019-12-14 10:15 55.2 45.41 34.45 55.2 55.2 3.85 3.85 1.01 56.3 189.4 0.0 0.071 37.38
2019-12-14 10:20 55.81 45.71 35.18 55.81 55.81 6.0 6.89 2.26 49.5 282.3 0.0 0.087 37.53
2019-12-14 10:25 56.79 44.42 35.34 56.79 56.79 3.31 8.12 4.88 41.6 281.2 0.0 0.068 37.69
2019-12-14 10:30 56.77 43.77 34.95 56.77 56.77 4.38 12.77 5.59 41.2 277.8 0.0 0.089 37.85
2019-12-14 10:35 58.06 42.86 35.6 58.06 58.06 5.46 9.91 5.77 37.4 254.5 0.0 0.143 38.01
2019-12-14 10:40 58.12 42.99 35.72 58.12 58.12 4.56 12.24 7.63 25.3 240.9 0.0 0.145 38.16
2019-12-14 10:45 58.86 40.99 35.19 58.86 58.86 4.92 10.63 6.29 30.3 258.8 0.0 0.142 38.34
2019-12-14 10:50 59.34 40.71 35.45 59.34 59.34 8.12 9.73 5.93 32.6 245.2 0.0 0.141 38.5
2019-12-14 10:55 58.89 41.72 35.67 58.89 58.89 2.77 12.06 6.24 35.1 253.5 0.0 0.142 38.66
2019-12-14 11:00 59.63 40.26 35.43 59.63 59.63 7.43 9.57 5.66 42.5 265.4 0.0 0.139 38.88
2019-12-14 11:05 60.17 40.09 35.81 60.17 60.17 5.82 7.25 4.94 40.9 245.3 0.0 0.141 39.07
2019-12-14 11:10 60.48 39.48 35.7 60.48 60.48 3.13 9.4 4.99 56.9 295.8 0.0 0.15 39.27
2019-12-14 11:15 61.07 38.86 35.83 61.07 61.07 13.49 13.49 5.75 46.7 260.2 0.0 0.153 39.47
2019-12-14 11:20 60.33 39.3 35.45 60.33 60.33 4.92 10.8 6.24 24.0 247.1 0.0 0.149 39.69
2019-12-14 11:25 59.83 39.84 35.35 59.83 59.83 2.95 8.12 5.01 34.8 247.9 0.0 0.081 39.88
2019-12-14 11:30 59.59 40.21 35.37 59.59 59.59 3.67 9.04 4.63 33.4 242.0 0.0 0.083 40.1
2019-12-14 11:35 60.01 39.8 35.48 60.01 60.01 4.56 11.88 6.11 27.1 240.3 0.0 0.114 40.3
2019-12-14 11:40 59.95 40.08 35.61 59.95 59.95 4.38 10.8 5.7 33.5 244.0 0.0 0.104 40.51
2019-12-14 11:45 60.87 38.75 35.58 60.87 60.87 4.56 9.57 5.17 35.4 243.5 0.0 0.116 40.69
2019-12-14 11:50 60.57 38.95 35.44 60.57 60.57 4.74 11.52 5.79 32.3 264.8 0.0 0.106 40.87
2019-12-14 11:55 60.93 39.02 35.81 60.93 60.93 3.67 9.04 4.94 47.1 272.9 0.0 0.151 41.07
2019-12-14 12:00 61.23 37.63 35.16 61.23 61.23 4.92 10.45 5.32 32.7 259.1 0.0 0.155 41.23
2019-12-14 12:05 60.8 38.38 35.28 60.8 60.8 2.77 11.7 5.23 45.9 265.2 0.0 0.109 41.41
2019-12-14 12:10 60.62 38.65 35.29 60.62 60.62 3.31 6.53 3.33 37.6 257.4 0.0 0.11 41.58
2019-12-14 12:15 60.49 38.78 35.26 60.49 60.49 2.59 6.53 4.07 31.0 255.0 0.0 0.086 41.76
2019-12-14 12:20 60.08 39.84 35.57 60.08 60.08 3.85 7.25 2.68 24.7 237.1 0.0 0.064 41.94
2019-12-14 12:25 59.77 39.94 35.36 59.77 59.77 2.06 5.1 1.54 27.1 250.5 0.0 0.059 42.12
2019-12-14 12:30 59.58 39.74 35.06 59.58 59.58 2.24 3.85 2.3 20.7 231.3 0.0 0.064 42.3
2019-12-14 12:35 60.08 40.01 35.68 60.08 60.08 0.0 2.42 0.31 5.1 220.6 0.0 0.071 42.48
2019-12-14 12:40 60.49 38.48 35.07 60.49 60.49 2.59 2.59 1.41 41.8 223.6 0.0 0.079 42.66
2019-12-14 12:45 60.57 39.09 35.53 60.57 60.57 0.0 3.67 2.13 19.7 237.3 0.0 0.091 42.78
2019-12-14 12:50 62.2 36.68 35.39 62.2 62.2 4.74 4.74 0.49 17.4 224.6 0.0 0.129 42.94
2019-12-14 12:55 62.33 36.75 35.55 62.33 62.33 2.06 4.92 2.77 44.6 208.7 0.0 0.111 43.11
2019-12-14 13:00 62.82 36.0 35.46 62.82 62.82 0.0 4.92 1.59 28.6 321.1 0.0 0.165 43.27
2019-12-14 13:05 63.61 34.13 34.81 63.61 63.61 4.03 8.3 4.41 40.3 276.7 0.0 0.097 43.41
2019-12-14 13:10 63.5 34.06 34.67 63.5 63.5 3.49 7.43 3.74 52.9 268.2 0.0 0.1 43.59
2019-12-14 13:15 64.15 32.6 34.14 64.15 64.15 7.61 7.61 4.25 31.9 260.9 0.0 0.132 43.77
2019-12-14 13:20 64.63 32.09 34.17 64.63 64.63 12.06 12.06 5.44 50.2 263.1 0.0 0.158 43.92
2019-12-14 13:25 64.81 31.85 34.14 64.81 64.81 5.1 9.91 6.11 41.7 245.1 0.0 0.14 44.11
2019-12-14 13:30 64.15 33.34 34.7 64.15 64.15 6.0 10.09 6.42 38.1 287.7 0.0 0.099 44.26
2019-12-14 13:35 63.9 33.0 34.22 63.9 63.9 7.25 9.4 3.53 65.0 285.8 0.0 0.083 44.44
2019-12-14 13:40 63.52 32.56 33.55 63.52 63.52 7.43 11.7 5.91 36.1 265.9 0.0 0.07 44.58
2019-12-14 13:45 64.0 31.1 32.83 64.0 64.0 10.09 11.34 7.23 65.1 277.8 0.0 0.095 44.74
2019-12-14 13:50 64.26 31.03 33.0 64.26 64.26 7.96 16.53 8.55 42.0 243.7 0.0 0.087 44.91
2019-12-14 13:55 64.92 30.35 33.02 64.92 64.92 9.4 12.24 7.99 22.1 246.3 0.0 0.122 45.03
2019-12-14 14:00 65.35 29.67 32.83 65.35 65.35 6.35 10.8 6.82 34.6 255.0 0.0 0.114 45.18
2019-12-14 14:05 65.1 29.37 32.36 65.1 65.1 6.53 12.95 8.59 48.3 269.6 0.0 0.106 45.3
2019-12-14 14:10 65.05 29.81 32.69 65.05 65.05 7.25 10.98 6.42 40.2 253.5 0.0 0.089 45.43
2019-12-14 14:15 65.23 28.86 32.04 65.23 65.23 14.03 14.03 8.61 37.1 272.2 0.0 0.085 45.54
2019-12-14 14:20 64.92 29.33 32.17 64.92 64.92 14.2 14.2 8.7 35.9 267.9 0.0 0.07 45.64
2019-12-14 14:25 64.49 29.57 32.0 64.49 64.49 6.35 14.56 8.41 46.9 289.3 0.0 0.066 45.73
2019-12-14 14:30 64.38 28.69 31.16 64.38 64.38 10.45 16.17 7.38 43.4 277.7 0.0 0.072 45.81
2019-12-14 14:35 64.56 30.15 32.55 64.56 64.56 5.82 12.77 6.76 43.1 277.0 0.0 0.065 45.91
2019-12-14 14:40 64.33 29.71 31.98 64.33 64.33 4.92 12.06 7.65 45.0 264.2 0.0 0.061 45.99
2019-12-14 14:45 64.87 26.86 29.95 64.87 64.87 8.3 16.53 8.72 41.1 269.2 0.0 0.077 46.08
2019-12-14 14:50 64.76 28.55 31.37 64.76 64.76 10.8 15.28 8.79 34.9 279.9 0.0 0.075 46.15
2019-12-14 14:55 64.81 26.96 30.0 64.81 64.81 6.71 12.77 7.87 42.3 274.2 0.0 0.064 46.22
2019-12-14 15:00 64.51 28.01 30.68 64.51 64.51 12.24 15.28 9.13 31.5 281.3 0.0 0.06 46.27
2019-12-14 15:05 64.09 28.73 30.95 64.09 64.09 6.35 13.85 9.22 38.0 284.3 0.0 0.049 46.33
2019-12-14 15:10 63.66 29.54 31.26 63.66 63.66 6.71 10.8 7.23 50.6 293.3 0.0 0.046 46.38
2019-12-14 15:15 63.72 29.1 30.93 63.72 63.72 5.64 14.38 7.99 38.0 277.9 0.0 0.043 46.44
2019-12-14 15:20 63.61 29.88 31.5 63.61 63.61 5.46 13.13 7.7 45.5 296.6 0.0 0.053 46.49
2019-12-14 15:25 64.76 28.97 31.73 64.76 64.76 7.78 12.06 8.08 47.8 296.0 0.0 0.085 46.53
2019-12-14 15:30 65.14 28.73 31.85 65.14 65.14 3.31 14.56 7.34 47.8 297.7 0.0 0.095 46.58
2019-12-14 15:35 65.8 28.73 32.42 65.8 65.8 5.82 10.8 6.15 54.7 298.1 0.0 0.09 46.62
2019-12-14 15:40 65.44 28.59 31.99 65.44 65.44 6.53 13.31 6.51 46.9 280.3 0.0 0.083 46.65
2019-12-14 15:45 65.07 28.73 31.78 65.07 65.07 6.89 12.95 7.9 43.1 270.2 0.0 0.076 46.69
2019-12-14 15:50 64.81 28.76 31.59 64.81 64.81 4.56 14.38 8.61 45.1 279.6 0.0 0.069 46.74
2019-12-14 15:55 64.76 28.01 30.89 64.76 64.76 9.4 12.59 7.81 57.7 289.3 0.0 0.063 46.8
2019-12-14 16:00 64.62 28.42 31.13 64.62 64.62 10.27 13.49 8.17 44.7 285.5 0.0 0.058 46.83
2019-12-14 16:05 64.56 28.52 31.17 64.56 64.56 5.82 10.98 7.31 42.4 295.9 0.0 0.054 46.89
2019-12-14 16:10 64.51 28.28 30.91 64.51 64.51 8.86 12.42 7.14 44.0 269.1 0.0 0.049 46.94
2019-12-14 16:15 64.31 28.89 31.27 64.31 64.31 10.27 10.45 6.62 35.9 281.4 0.0 0.04 46.98
2019-12-14 16:20 63.95 29.5 31.47 63.95 63.95 6.17 12.77 8.01 35.4 270.6 0.0 0.033 47.01
2019-12-14 16:25 63.21 30.18 31.4 63.21 63.21 7.78 11.52 6.87 46.8 273.6 0.0 0.027 47.05
2019-12-14 16:30 62.55 30.45 31.04 62.55 62.55 4.92 9.73 6.17 42.7 285.8 0.0 0.017 47.08
2019-12-14 16:35 61.88 31.1 30.98 61.88 61.88 6.71 11.7 7.0 26.8 289.3 0.0 0.011 47.1
2019-12-14 16:40 61.45 32.05 31.35 61.45 61.45 6.53 12.24 7.14 45.6 289.0 0.0 0.01 47.12
2019-12-14 16:45 61.09 32.87 31.66 61.09 61.09 4.03 9.22 5.7 46.9 271.3 0.0 0.007 47.14
2019-12-14 16:50 60.85 33.25 31.74 60.85 60.85 3.49 9.22 3.91 51.2 273.9 0.0 0.005 47.16
2019-12-14 16:55 60.19 33.82 31.57 60.19 60.19 4.74 7.25 4.74 38.9 245.2 0.0 0.003 47.16
2019-12-14 17:00 59.76 34.74 31.86 59.76 59.76 2.95 7.78 3.6 45.2 256.0 0.0 0.002 47.14
2019-12-14 17:05 59.22 35.12 31.65 59.22 59.22 2.42 5.82 3.44 32.0 257.8 0.0 0.001 47.14
2019-12-14 17:10 58.37 35.77 31.35 58.37 58.37 2.77 4.21 2.62 41.4 252.6 0.0 0.001 47.12
2019-12-14 17:15 57.76 36.92 31.59 57.76 57.76 2.06 2.42 1.83 39.2 244.1 0.0 0.0 47.08
2019-12-14 17:20 56.98 37.47 31.27 56.98 56.98 5.1 5.64 2.53 40.0 264.7 0.0 0.0 47.07
2019-12-14 17:25 57.29 36.69 31.02 57.29 57.29 5.46 5.64 3.62 28.9 244.6 0.0 0.0 47.03

Data is courtesy of the NM Climate Center. DO NOT USE IN LEGAL PROCEEDINGS.